sensor_id;sensor_type;location;lat;lon;timestamp;pressure;altitude;pressure_sealevel;temperature;humidity
4586;BME280;2305;50.118;8.952;2023-03-29T00:01:30;100986.75;;;7.82;100.00
4586;BME280;2305;50.118;8.952;2023-03-29T00:04:02;100987.34;;;7.87;100.00
4586;BME280;2305;50.118;8.952;2023-03-29T00:06:30;100977.78;;;7.86;100.00
4586;BME280;2305;50.118;8.952;2023-03-29T00:09:00;100962.19;;;7.83;100.00
4586;BME280;2305;50.118;8.952;2023-03-29T00:11:31;100962.94;;;7.85;100.00
4586;BME280;2305;50.118;8.952;2023-03-29T00:14:00;100949.09;;;7.83;100.00
4586;BME280;2305;50.118;8.952;2023-03-29T00:16:28;100937.13;;;7.79;100.00
4586;BME280;2305;50.118;8.952;2023-03-29T00:18:59;100934.06;;;7.71;100.00
4586;BME280;2305;50.118;8.952;2023-03-29T00:21:27;100928.09;;;7.69;100.00
4586;BME280;2305;50.118;8.952;2023-03-29T00:23:55;100919.13;;;7.73;100.00
4586;BME280;2305;50.118;8.952;2023-03-29T00:26:25;100908.44;;;7.76;100.00
4586;BME280;2305;50.118;8.952;2023-03-29T00:28:54;100901.78;;;7.70;100.00
4586;BME280;2305;50.118;8.952;2023-03-29T00:31:24;100912.19;;;7.72;100.00
4586;BME280;2305;50.118;8.952;2023-03-29T00:33:53;100922.09;;;7.67;100.00
4586;BME280;2305;50.118;8.952;2023-03-29T00:36:23;100915.34;;;7.63;100.00
4586;BME280;2305;50.118;8.952;2023-03-29T00:38:54;100912.56;;;7.66;100.00
4586;BME280;2305;50.118;8.952;2023-03-29T00:41:25;100918.91;;;7.62;100.00
4586;BME280;2305;50.118;8.952;2023-03-29T00:43:56;100918.81;;;7.63;100.00
4586;BME280;2305;50.118;8.952;2023-03-29T00:46:27;100920.78;;;7.60;100.00
4586;BME280;2305;50.118;8.952;2023-03-29T00:49:00;100921.81;;;7.57;100.00
4586;BME280;2305;50.118;8.952;2023-03-29T00:51:32;100914.78;;;7.58;100.00
4586;BME280;2305;50.118;8.952;2023-03-29T00:54:08;100904.19;;;7.59;100.00
4586;BME280;2305;50.118;8.952;2023-03-29T00:56:43;100905.63;;;7.65;100.00
4586;BME280;2305;50.118;8.952;2023-03-29T00:59:17;100906.56;;;7.64;100.00
4586;BME280;2305;50.118;8.952;2023-03-29T01:01:49;100905.63;;;7.65;100.00
4586;BME280;2305;50.118;8.952;2023-03-29T01:04:24;100894.34;;;7.63;100.00
4586;BME280;2305;50.118;8.952;2023-03-29T01:06:59;100889.22;;;7.61;100.00
4586;BME280;2305;50.118;8.952;2023-03-29T01:09:31;100893.69;;;7.59;100.00
4586;BME280;2305;50.118;8.952;2023-03-29T01:12:08;100887.63;;;7.59;100.00
4586;BME280;2305;50.118;8.952;2023-03-29T01:14:41;100877.81;;;7.62;100.00
4586;BME280;2305;50.118;8.952;2023-03-29T01:17:13;100874.59;;;7.57;100.00
4586;BME280;2305;50.118;8.952;2023-03-29T01:19:45;100866.75;;;7.57;100.00
4586;BME280;2305;50.118;8.952;2023-03-29T01:22:22;100864.41;;;7.53;100.00
4586;BME280;2305;50.118;8.952;2023-03-29T01:25:04;100860.38;;;7.47;100.00
4586;BME280;2305;50.118;8.952;2023-03-29T01:27:48;100854.84;;;7.52;100.00
4586;BME280;2305;50.118;8.952;2023-03-29T01:30:21;100852.50;;;7.47;100.00
4586;BME280;2305;50.118;8.952;2023-03-29T01:32:55;100839.56;;;7.44;100.00
4586;BME280;2305;50.118;8.952;2023-03-29T01:35:30;100847.34;;;7.46;100.00
4586;BME280;2305;50.118;8.952;2023-03-29T01:38:07;100848.28;;;7.45;100.00
4586;BME280;2305;50.118;8.952;2023-03-29T01:40:39;100844.66;;;7.47;100.00
4586;BME280;2305;50.118;8.952;2023-03-29T01:43:15;100848.94;;;7.48;100.00
4586;BME280;2305;50.118;8.952;2023-03-29T01:45:56;100848.09;;;7.48;100.00
4586;BME280;2305;50.118;8.952;2023-03-29T01:48:30;100844.28;;;7.53;100.00
4586;BME280;2305;50.118;8.952;2023-03-29T01:51:05;100834.81;;;7.51;100.00
4586;BME280;2305;50.118;8.952;2023-03-29T01:53:39;100831.53;;;7.47;100.00
4586;BME280;2305;50.118;8.952;2023-03-29T01:56:11;100826.28;;;7.47;100.00
4586;BME280;2305;50.118;8.952;2023-03-29T01:58:44;100825.81;;;7.41;100.00
4586;BME280;2305;50.118;8.952;2023-03-29T02:01:18;100827.47;;;7.42;100.00
4586;BME280;2305;50.118;8.952;2023-03-29T02:03:51;100822.25;;;7.42;100.00
4586;BME280;2305;50.118;8.952;2023-03-29T02:06:23;100825.34;;;7.34;100.00
4586;BME280;2305;50.118;8.952;2023-03-29T02:08:54;100830.66;;;7.33;100.00
4586;BME280;2305;50.118;8.952;2023-03-29T02:11:23;100822.81;;;7.33;100.00
4586;BME280;2305;50.118;8.952;2023-03-29T02:13:56;100832.19;;;7.37;100.00
4586;BME280;2305;50.118;8.952;2023-03-29T02:16:26;100828.72;;;7.36;100.00
4586;BME280;2305;50.118;8.952;2023-03-29T02:18:55;100822.81;;;7.33;100.00
4586;BME280;2305;50.118;8.952;2023-03-29T02:21:35;100820.94;;;7.35;100.00
4586;BME280;2305;50.118;8.952;2023-03-29T02:24:09;100808.47;;;7.38;100.00
4586;BME280;2305;50.118;8.952;2023-03-29T02:26:40;100809.34;;;7.39;100.00
4586;BME280;2305;50.118;8.952;2023-03-29T02:29:09;100803.16;;;7.40;100.00
4586;BME280;2305;50.118;8.952;2023-03-29T02:31:41;100801.47;;;7.39;100.00
4586;BME280;2305;50.118;8.952;2023-03-29T02:34:14;100803.22;;;7.38;100.00
4586;BME280;2305;50.118;8.952;2023-03-29T02:36:49;100800.44;;;7.41;100.00
4586;BME280;2305;50.118;8.952;2023-03-29T02:39:20;100801.28;;;7.42;100.00
4586;BME280;2305;50.118;8.952;2023-03-29T02:41:52;100797.75;;;7.43;100.00
4586;BME280;2305;50.118;8.952;2023-03-29T02:44:25;100790.31;;;7.35;100.00
4586;BME280;2305;50.118;8.952;2023-03-29T02:46:56;100791.19;;;7.36;100.00
4586;BME280;2305;50.118;8.952;2023-03-29T02:49:27;100793.59;;;7.39;100.00
4586;BME280;2305;50.118;8.952;2023-03-29T02:52:00;100781.91;;;7.30;100.00
4586;BME280;2305;50.118;8.952;2023-03-29T02:54:37;100784.63;;;7.29;100.00
4586;BME280;2305;50.118;8.952;2023-03-29T02:57:10;100770.00;;;7.25;100.00
4586;BME280;2305;50.118;8.952;2023-03-29T02:59:41;100773.09;;;7.31;100.00
4586;BME280;2305;50.118;8.952;2023-03-29T03:02:10;100767.03;;;7.31;100.00
4586;BME280;2305;50.118;8.952;2023-03-29T03:04:42;100764.50;;;7.29;100.00
4586;BME280;2305;50.118;8.952;2023-03-29T03:07:13;100765.22;;;7.31;100.00
4586;BME280;2305;50.118;8.952;2023-03-29T03:09:41;100758.13;;;7.33;100.00
4586;BME280;2305;50.118;8.952;2023-03-29T03:12:09;100747.38;;;7.38;100.00
4586;BME280;2305;50.118;8.952;2023-03-29T03:14:37;100756.34;;;7.34;100.00
4586;BME280;2305;50.118;8.952;2023-03-29T03:17:08;100758.13;;;7.33;100.00
4586;BME280;2305;50.118;8.952;2023-03-29T03:19:36;100758.13;;;7.33;100.00
4586;BME280;2305;50.118;8.952;2023-03-29T03:22:05;100759.81;;;7.34;100.00
4586;BME280;2305;50.118;8.952;2023-03-29T03:24:36;100754.66;;;7.33;100.00
4586;BME280;2305;50.118;8.952;2023-03-29T03:27:04;100745.84;;;7.34;100.00
4586;BME280;2305;50.118;8.952;2023-03-29T03:29:34;100758.13;;;7.33;100.00
4586;BME280;2305;50.118;8.952;2023-03-29T03:32:17;100754.00;;;7.29;100.00
4586;BME280;2305;50.118;8.952;2023-03-29T03:35:18;100744.75;;;7.38;100.00
4586;BME280;2305;50.118;8.952;2023-03-29T03:37:46;100749.34;;;7.34;100.00
4586;BME280;2305;50.118;8.952;2023-03-29T03:40:16;100745.84;;;7.34;100.00
4586;BME280;2305;50.118;8.952;2023-03-29T03:42:47;100744.84;;;7.36;100.00
4586;BME280;2305;50.118;8.952;2023-03-29T03:45:15;100749.78;;;7.41;100.00
4586;BME280;2305;50.118;8.952;2023-03-29T03:47:52;100744.53;;;7.41;100.00
4586;BME280;2305;50.118;8.952;2023-03-29T03:50:51;100746.22;;;7.42;100.00
4586;BME280;2305;50.118;8.952;2023-03-29T03:53:21;100754.00;;;7.43;100.00
4586;BME280;2305;50.118;8.952;2023-03-29T03:56:08;100749.41;;;7.47;100.00
4586;BME280;2305;50.118;8.952;2023-03-29T03:58:56;100748.66;;;7.45;100.00
4586;BME280;2305;50.118;8.952;2023-03-29T04:01:29;100742.78;;;7.41;100.00
4586;BME280;2305;50.118;8.952;2023-03-29T04:04:05;100741.63;;;7.45;100.00
4586;BME280;2305;50.118;8.952;2023-03-29T04:06:34;100734.06;;;7.41;100.00
4586;BME280;2305;50.118;8.952;2023-03-29T04:09:22;100735.09;;;7.38;100.00
4586;BME280;2305;50.118;8.952;2023-03-29T04:12:03;100727.41;;;7.35;100.00
4586;BME280;2305;50.118;8.952;2023-03-29T04:14:32;100735.09;;;7.38;100.00
4586;BME280;2305;50.118;8.952;2023-03-29T04:17:05;100729.97;;;7.37;100.00
4586;BME280;2305;50.118;8.952;2023-03-29T04:19:57;100726.56;;;7.35;100.00
4586;BME280;2305;50.118;8.952;2023-03-29T04:22:30;100725.53;;;7.37;100.00
4586;BME280;2305;50.118;8.952;2023-03-29T04:25:00;100733.13;;;7.42;100.00
4586;BME280;2305;50.118;8.952;2023-03-29T04:27:41;100723.56;;;7.41;100.00
4586;BME280;2305;50.118;8.952;2023-03-29T04:30:23;100732.19;;;7.43;100.00
4586;BME280;2305;50.118;8.952;2023-03-29T04:33:15;100721.88;;;7.40;100.00
4586;BME280;2305;50.118;8.952;2023-03-29T04:35:49;100727.03;;;7.41;100.00
4586;BME280;2305;50.118;8.952;2023-03-29T04:38:18;100725.16;;;7.43;100.00
4586;BME280;2305;50.118;8.952;2023-03-29T04:40:50;100727.63;;;7.46;100.00
4586;BME280;2305;50.118;8.952;2023-03-29T04:43:48;100724.34;;;7.43;100.00
4586;BME280;2305;50.118;8.952;2023-03-29T04:46:21;100718.16;;;7.44;100.00
4586;BME280;2305;50.118;8.952;2023-03-29T04:49:10;100709.34;;;7.45;100.00
4586;BME280;2305;50.118;8.952;2023-03-29T04:51:46;100717.00;;;7.48;100.00
4586;BME280;2305;50.118;8.952;2023-03-29T04:54:19;100712.72;;;7.47;100.00
4586;BME280;2305;50.118;8.952;2023-03-29T04:57:06;100720.78;;;7.44;100.00
4586;BME280;2305;50.118;8.952;2023-03-29T05:00:05;100718.25;;;7.42;100.00
4586;BME280;2305;50.118;8.952;2023-03-29T05:03:10;100715.41;;;7.45;100.00
4586;BME280;2305;50.118;8.952;2023-03-29T05:05:52;100717.00;;;7.48;100.00
4586;BME280;2305;50.118;8.952;2023-03-29T05:08:21;100716.63;;;7.54;100.00
4586;BME280;2305;50.118;8.952;2023-03-29T05:11:21;100715.50;;;7.58;100.00
4586;BME280;2305;50.118;8.952;2023-03-29T05:13:52;100716.25;;;7.60;100.00
4586;BME280;2305;50.118;8.952;2023-03-29T05:16:25;100705.75;;;7.60;100.00
4586;BME280;2305;50.118;8.952;2023-03-29T05:18:57;100718.00;;;7.59;100.00
4586;BME280;2305;50.118;8.952;2023-03-29T05:21:26;100712.69;;;7.61;100.00
4586;BME280;2305;50.118;8.952;2023-03-29T05:23:59;100713.53;;;7.61;100.00
4586;BME280;2305;50.118;8.952;2023-03-29T05:26:50;100714.19;;;7.65;100.00
4586;BME280;2305;50.118;8.952;2023-03-29T05:29:22;100715.66;;;7.69;100.00
4586;BME280;2305;50.118;8.952;2023-03-29T05:31:58;100710.88;;;7.75;100.00
4586;BME280;2305;50.118;8.952;2023-03-29T05:34:32;100718.53;;;7.78;100.00
4586;BME280;2305;50.118;8.952;2023-03-29T05:37:01;100712.25;;;7.81;100.00
4586;BME280;2305;50.118;8.952;2023-03-29T05:39:40;100707.03;;;7.81;100.00
4586;BME280;2305;50.118;8.952;2023-03-29T05:42:09;100711.69;;;7.76;100.00
4586;BME280;2305;50.118;8.952;2023-03-29T05:44:50;100714.03;;;7.80;100.00
4586;BME280;2305;50.118;8.952;2023-03-29T05:47:20;100716.56;;;7.82;100.00
4586;BME280;2305;50.118;8.952;2023-03-29T05:49:50;100702.50;;;7.83;100.00
4586;BME280;2305;50.118;8.952;2023-03-29T05:52:22;100704.75;;;7.89;100.00
4586;BME280;2305;50.118;8.952;2023-03-29T05:54:52;100706.31;;;7.91;100.00
4586;BME280;2305;50.118;8.952;2023-03-29T05:57:22;100713.03;;;7.95;100.00
4586;BME280;2305;50.118;8.952;2023-03-29T05:59:50;100712.41;;;7.92;100.00
4586;BME280;2305;50.118;8.952;2023-03-29T06:02:20;100716.59;;;7.94;100.00
4586;BME280;2305;50.118;8.952;2023-03-29T06:04:52;100721.03;;;7.94;100.00
4586;BME280;2305;50.118;8.952;2023-03-29T06:07:21;100721.13;;;7.92;100.00
4586;BME280;2305;50.118;8.952;2023-03-29T06:10:10;100720.34;;;8.04;100.00
4586;BME280;2305;50.118;8.952;2023-03-29T06:12:44;100706.06;;;8.08;100.00
4586;BME280;2305;50.118;8.952;2023-03-29T06:15:14;100713.34;;;8.17;100.00
4586;BME280;2305;50.118;8.952;2023-03-29T06:17:45;100706.03;;;8.22;100.00
4586;BME280;2305;50.118;8.952;2023-03-29T06:20:15;100702.72;;;8.33;100.00
4586;BME280;2305;50.118;8.952;2023-03-29T06:22:49;100704.19;;;8.37;100.00
4586;BME280;2305;50.118;8.952;2023-03-29T06:25:19;100703.88;;;8.29;100.00
4586;BME280;2305;50.118;8.952;2023-03-29T06:27:49;100703.88;;;8.29;100.00
4586;BME280;2305;50.118;8.952;2023-03-29T06:30:19;100706.28;;;8.32;100.00
4586;BME280;2305;50.118;8.952;2023-03-29T06:32:53;100712.78;;;8.26;100.00
4586;BME280;2305;50.118;8.952;2023-03-29T06:35:45;100715.13;;;8.43;100.00
4586;BME280;2305;50.118;8.952;2023-03-29T06:38:17;100712.19;;;8.48;100.00
4586;BME280;2305;50.118;8.952;2023-03-29T06:41:09;100714.72;;;8.62;100.00
4586;BME280;2305;50.118;8.952;2023-03-29T06:43:53;100724.91;;;8.54;100.00
4586;BME280;2305;50.118;8.952;2023-03-29T06:46:26;100724.41;;;8.61;100.00
4586;BME280;2305;50.118;8.952;2023-03-29T06:49:00;100722.75;;;8.73;100.00
4586;BME280;2305;50.118;8.952;2023-03-29T06:51:34;100729.25;;;8.80;100.00
4586;BME280;2305;50.118;8.952;2023-03-29T06:54:03;100734.44;;;8.81;100.00
4586;BME280;2305;50.118;8.952;2023-03-29T06:56:32;100736.81;;;8.96;100.00
4586;BME280;2305;50.118;8.952;2023-03-29T06:59:05;100736.19;;;8.93;100.00
4586;BME280;2305;50.118;8.952;2023-03-29T07:01:45;100736.63;;;8.99;100.00
4586;BME280;2305;50.118;8.952;2023-03-29T07:04:24;100737.28;;;9.03;100.00
4586;BME280;2305;50.118;8.952;2023-03-29T07:07:12;100731.25;;;9.01;100.00
4586;BME280;2305;50.118;8.952;2023-03-29T07:09:51;100736.22;;;9.18;100.00
4586;BME280;2305;50.118;8.952;2023-03-29T07:13:04;100727.34;;;9.31;100.00
4586;BME280;2305;50.118;8.952;2023-03-29T07:15:32;100726.94;;;9.25;100.00
4586;BME280;2305;50.118;8.952;2023-03-29T07:18:12;100730.31;;;9.27;100.00
4586;BME280;2305;50.118;8.952;2023-03-29T07:20:40;100732.09;;;9.01;100.00
4586;BME280;2305;50.118;8.952;2023-03-29T07:23:10;100736.50;;;9.01;100.00
4586;BME280;2305;50.118;8.952;2023-03-29T07:25:38;100739.66;;;9.18;100.00
4586;BME280;2305;50.118;8.952;2023-03-29T07:28:08;100740.63;;;9.17;100.00
4586;BME280;2305;50.118;8.952;2023-03-29T07:30:37;100737.88;;;9.31;100.00
4586;BME280;2305;50.118;8.952;2023-03-29T07:33:12;100738.16;;;9.39;100.00
4586;BME280;2305;50.118;8.952;2023-03-29T07:35:50;100740.56;;;9.55;100.00
4586;BME280;2305;50.118;8.952;2023-03-29T07:38:18;100743.06;;;9.69;100.00
4586;BME280;2305;50.118;8.952;2023-03-29T07:40:53;100745.91;;;9.66;100.00
4586;BME280;2305;50.118;8.952;2023-03-29T07:43:45;100749.06;;;9.71;100.00
4586;BME280;2305;50.118;8.952;2023-03-29T07:46:17;100742.31;;;9.79;100.00
4586;BME280;2305;50.118;8.952;2023-03-29T07:48:45;100740.06;;;9.86;100.00
4586;BME280;2305;50.118;8.952;2023-03-29T07:51:16;100747.53;;;9.92;100.00
4586;BME280;2305;50.118;8.952;2023-03-29T07:53:47;100750.38;;;9.89;100.00
4586;BME280;2305;50.118;8.952;2023-03-29T07:56:29;100743.94;;;10.05;100.00
4586;BME280;2305;50.118;8.952;2023-03-29T07:59:32;100759.28;;;9.99;100.00
4586;BME280;2305;50.118;8.952;2023-03-29T08:02:08;100769.00;;;9.98;100.00
4586;BME280;2305;50.118;8.952;2023-03-29T08:04:44;100761.81;;;10.00;100.00
4586;BME280;2305;50.118;8.952;2023-03-29T08:07:17;100752.34;;;9.98;100.00
4586;BME280;2305;50.118;8.952;2023-03-29T08:10:03;100745.06;;;10.01;100.00
4586;BME280;2305;50.118;8.952;2023-03-29T08:12:54;100751.69;;;10.07;100.00
4586;BME280;2305;50.118;8.952;2023-03-29T08:15:36;100744.41;;;10.10;100.00
4586;BME280;2305;50.118;8.952;2023-03-29T08:18:16;100750.47;;;10.23;100.00
4586;BME280;2305;50.118;8.952;2023-03-29T08:20:43;100747.56;;;10.39;100.00
4586;BME280;2305;50.118;8.952;2023-03-29T08:23:12;100741.72;;;10.46;100.00
4586;BME280;2305;50.118;8.952;2023-03-29T08:25:58;100744.59;;;10.43;100.00
4586;BME280;2305;50.118;8.952;2023-03-29T08:28:27;100753.28;;;10.56;100.00
4586;BME280;2305;50.118;8.952;2023-03-29T08:30:59;100749.25;;;10.74;100.00
4586;BME280;2305;50.118;8.952;2023-03-29T08:33:28;100756.09;;;10.53;100.00
4586;BME280;2305;50.118;8.952;2023-03-29T08:36:16;100755.66;;;10.59;100.00
4586;BME280;2305;50.118;8.952;2023-03-29T08:38:48;100741.31;;;10.74;100.00
4586;BME280;2305;50.118;8.952;2023-03-29T08:41:30;100745.19;;;10.47;100.00
4586;BME280;2305;50.118;8.952;2023-03-29T08:44:09;100749.25;;;10.40;100.00
4586;BME280;2305;50.118;8.952;2023-03-29T08:47:02;100737.38;;;10.34;100.00
4586;BME280;2305;50.118;8.952;2023-03-29T08:49:39;100737.31;;;10.47;100.00
4586;BME280;2305;50.118;8.952;2023-03-29T08:52:18;100735.03;;;10.53;100.00
4586;BME280;2305;50.118;8.952;2023-03-29T08:54:50;100736.16;;;10.62;100.00
4586;BME280;2305;50.118;8.952;2023-03-29T08:57:30;100745.88;;;10.72;100.00
4586;BME280;2305;50.118;8.952;2023-03-29T09:00:06;100739.56;;;10.86;100.00
4586;BME280;2305;50.118;8.952;2023-03-29T09:02:40;100736.09;;;10.96;100.00
4586;BME280;2305;50.118;8.952;2023-03-29T09:05:17;100740.78;;;11.15;100.00
4586;BME280;2305;50.118;8.952;2023-03-29T09:08:16;100730.84;;;11.18;100.00
4586;BME280;2305;50.118;8.952;2023-03-29T09:11:01;100721.50;;;11.25;100.00
4586;BME280;2305;50.118;8.952;2023-03-29T09:13:39;100733.84;;;11.36;100.00
4586;BME280;2305;50.118;8.952;2023-03-29T09:16:19;100731.94;;;11.27;100.00
4586;BME280;2305;50.118;8.952;2023-03-29T09:19:06;100724.03;;;11.38;100.00
4586;BME280;2305;50.118;8.952;2023-03-29T09:21:46;100733.38;;;11.42;100.00
4586;BME280;2305;50.118;8.952;2023-03-29T09:24:39;100737.09;;;11.50;100.00
4586;BME280;2305;50.118;8.952;2023-03-29T09:27:21;100742.88;;;11.77;100.00
4586;BME280;2305;50.118;8.952;2023-03-29T09:30:03;100741.66;;;11.92;100.00
4586;BME280;2305;50.118;8.952;2023-03-29T09:32:56;100735.94;;;11.76;100.00
4586;BME280;2305;50.118;8.952;2023-03-29T09:35:48;100736.75;;;11.88;100.00
4586;BME280;2305;50.118;8.952;2023-03-29T09:38:20;100738.53;;;11.87;100.00
4586;BME280;2305;50.118;8.952;2023-03-29T09:40:54;100743.47;;;11.70;100.00
4586;BME280;2305;50.118;8.952;2023-03-29T09:43:29;100738.91;;;11.94;100.00
4586;BME280;2305;50.118;8.952;2023-03-29T09:46:02;100739.22;;;11.89;100.00
4586;BME280;2305;50.118;8.952;2023-03-29T09:48:36;100727.47;;;12.04;100.00
4586;BME280;2305;50.118;8.952;2023-03-29T09:51:08;100723.78;;;12.27;100.00
4586;BME280;2305;50.118;8.952;2023-03-29T09:53:39;100723.38;;;12.11;100.00
4586;BME280;2305;50.118;8.952;2023-03-29T09:56:30;100718.50;;;12.27;100.00
4586;BME280;2305;50.118;8.952;2023-03-29T09:59:15;100716.34;;;12.21;100.00
4586;BME280;2305;50.118;8.952;2023-03-29T10:01:43;100719.47;;;12.26;100.00
4586;BME280;2305;50.118;8.952;2023-03-29T10:04:14;100719.41;;;12.37;100.00
4586;BME280;2305;50.118;8.952;2023-03-29T10:06:52;100703.59;;;12.58;100.00
4586;BME280;2305;50.118;8.952;2023-03-29T10:09:22;100698.91;;;12.71;100.00
4586;BME280;2305;50.118;8.952;2023-03-29T10:12:00;100714.59;;;12.83;100.00
4586;BME280;2305;50.118;8.952;2023-03-29T10:14:34;100711.50;;;12.99;100.00
4586;BME280;2305;50.118;8.952;2023-03-29T10:17:12;100706.28;;;13.08;100.00
4586;BME280;2305;50.118;8.952;2023-03-29T10:19:47;100705.66;;;12.95;100.00
4586;BME280;2305;50.118;8.952;2023-03-29T10:22:21;100693.75;;;13.10;100.00
4586;BME280;2305;50.118;8.952;2023-03-29T10:24:54;100711.44;;;13.10;100.00
4586;BME280;2305;50.118;8.952;2023-03-29T10:27:26;100695.28;;;13.33;100.00
4586;BME280;2305;50.118;8.952;2023-03-29T10:29:57;100700.03;;;13.39;100.00
4586;BME280;2305;50.118;8.952;2023-03-29T10:32:30;100709.94;;;13.47;100.00
4586;BME280;2305;50.118;8.952;2023-03-29T10:35:07;100704.72;;;13.66;100.00
4586;BME280;2305;50.118;8.952;2023-03-29T10:37:40;100708.91;;;13.68;100.00
4586;BME280;2305;50.118;8.952;2023-03-29T10:40:18;100697.22;;;13.41;100.00
4586;BME280;2305;50.118;8.952;2023-03-29T10:42:49;100691.69;;;13.53;100.00
4586;BME280;2305;50.118;8.952;2023-03-29T10:45:24;100684.63;;;13.63;100.00
4586;BME280;2305;50.118;8.952;2023-03-29T10:47:54;100671.84;;;13.96;100.00
4586;BME280;2305;50.118;8.952;2023-03-29T10:50:25;100673.94;;;13.93;100.00
4586;BME280;2305;50.118;8.952;2023-03-29T10:53:01;100672.16;;;13.93;100.00
4586;BME280;2305;50.118;8.952;2023-03-29T10:55:36;100668.22;;;13.88;100.00
4586;BME280;2305;50.118;8.952;2023-03-29T10:58:23;100672.00;;;14.14;100.00
4586;BME280;2305;50.118;8.952;2023-03-29T11:00:55;100662.84;;;14.18;100.00
4586;BME280;2305;50.118;8.952;2023-03-29T11:03:47;100664.47;;;14.00;100.00
4586;BME280;2305;50.118;8.952;2023-03-29T11:06:27;100665.56;;;13.88;100.00
4586;BME280;2305;50.118;8.952;2023-03-29T11:09:03;100666.56;;;14.06;100.00
4586;BME280;2305;50.118;8.952;2023-03-29T11:11:49;100654.97;;;13.88;100.00
4586;BME280;2305;50.118;8.952;2023-03-29T11:14:49;100660.84;;;13.82;100.00
4586;BME280;2305;50.118;8.952;2023-03-29T11:17:28;100663.50;;;13.82;100.00
4586;BME280;2305;50.118;8.952;2023-03-29T11:20:11;100664.34;;;14.01;100.00
4586;BME280;2305;50.118;8.952;2023-03-29T11:22:52;100665.34;;;14.19;100.00
4586;BME280;2305;50.118;8.952;2023-03-29T11:25:32;100654.88;;;14.08;100.00
4586;BME280;2305;50.118;8.952;2023-03-29T11:28:11;100657.69;;;14.35;100.00
4586;BME280;2305;50.118;8.952;2023-03-29T11:30:47;100649.31;;;14.40;100.00
4586;BME280;2305;50.118;8.952;2023-03-29T11:33:28;100650.53;;;14.55;100.00
4586;BME280;2305;50.118;8.952;2023-03-29T11:36:05;100656.09;;;14.52;100.00
4586;BME280;2305;50.118;8.952;2023-03-29T11:38:39;100651.06;;;14.68;100.00
4586;BME280;2305;50.118;8.952;2023-03-29T11:41:15;100649.31;;;14.49;100.00
4586;BME280;2305;50.118;8.952;2023-03-29T11:43:49;100641.56;;;14.75;100.00
4586;BME280;2305;50.118;8.952;2023-03-29T11:46:25;100630.22;;;14.82;100.00
4586;BME280;2305;50.118;8.952;2023-03-29T11:48:58;100642.38;;;14.85;100.00
4586;BME280;2305;50.118;8.952;2023-03-29T11:51:31;100643.22;;;15.12;100.00
4586;BME280;2305;50.118;8.952;2023-03-29T11:54:09;100633.03;;;15.17;100.00
4586;BME280;2305;50.118;8.952;2023-03-29T11:56:44;100635.22;;;15.22;100.00
4586;BME280;2305;50.118;8.952;2023-03-29T11:59:18;100623.88;;;15.39;100.00
4586;BME280;2305;50.118;8.952;2023-03-29T12:01:51;100633.78;;;15.37;100.00
4586;BME280;2305;50.118;8.952;2023-03-29T12:04:26;100626.34;;;15.67;100.00
4586;BME280;2305;50.118;8.952;2023-03-29T12:07:03;100616.03;;;15.82;100.00
4586;BME280;2305;50.118;8.952;2023-03-29T12:09:38;100622.19;;;15.82;100.00
4586;BME280;2305;50.118;8.952;2023-03-29T12:12:12;100625.38;;;15.86;100.00
4586;BME280;2305;50.118;8.952;2023-03-29T12:14:55;100629.34;;;15.82;100.00
4586;BME280;2305;50.118;8.952;2023-03-29T12:17:29;100625.59;;;15.75;100.00
4586;BME280;2305;50.118;8.952;2023-03-29T12:20:04;100627.56;;;15.90;100.00
4586;BME280;2305;50.118;8.952;2023-03-29T12:22:40;100610.50;;;15.93;100.00
4586;BME280;2305;50.118;8.952;2023-03-29T12:25:14;100617.31;;;15.95;100.00
4586;BME280;2305;50.118;8.952;2023-03-29T12:27:56;100614.59;;;15.43;100.00
4586;BME280;2305;50.118;8.952;2023-03-29T12:30:40;100606.66;;;15.43;100.00
4586;BME280;2305;50.118;8.952;2023-03-29T12:33:45;100601.63;;;15.67;100.00
4586;BME280;2305;50.118;8.952;2023-03-29T12:37:06;100605.63;;;15.71;100.00
4586;BME280;2305;50.118;8.952;2023-03-29T12:40:11;100603.63;;;15.73;100.00
4586;BME280;2305;50.118;8.952;2023-03-29T12:43:02;100606.63;;;15.70;100.00
4586;BME280;2305;50.118;8.952;2023-03-29T12:45:53;100608.19;;;15.63;100.00
4586;BME280;2305;50.118;8.952;2023-03-29T12:48:26;100600.97;;;15.73;100.00
4586;BME280;2305;50.118;8.952;2023-03-29T12:50:58;100590.75;;;15.78;100.00
4586;BME280;2305;50.118;8.952;2023-03-29T12:53:31;100580.06;;;15.87;100.00
4586;BME280;2305;50.118;8.952;2023-03-29T12:56:09;100577.75;;;16.10;100.00
4586;BME280;2305;50.118;8.952;2023-03-29T12:59:06;100581.75;;;16.14;100.00
4586;BME280;2305;50.118;8.952;2023-03-29T13:01:57;100570.47;;;16.12;100.00
4586;BME280;2305;50.118;8.952;2023-03-29T13:04:48;100570.13;;;16.15;100.00
4586;BME280;2305;50.118;8.952;2023-03-29T13:07:28;100575.94;;;16.36;100.00
4586;BME280;2305;50.118;8.952;2023-03-29T13:09:58;100574.28;;;16.52;100.00
4586;BME280;2305;50.118;8.952;2023-03-29T13:12:29;100571.25;;;16.30;100.00
4586;BME280;2305;50.118;8.952;2023-03-29T13:15:06;100563.34;;;15.95;100.00
4586;BME280;2305;50.118;8.952;2023-03-29T13:17:55;100564.56;;;15.83;100.00
4586;BME280;2305;50.118;8.952;2023-03-29T13:20:38;100557.84;;;15.96;100.00
4586;BME280;2305;50.118;8.952;2023-03-29T13:23:19;100553.13;;;16.08;100.00
4586;BME280;2305;50.118;8.952;2023-03-29T13:26:05;100550.66;;;16.32;100.00
4586;BME280;2305;50.118;8.952;2023-03-29T13:28:45;100541.09;;;16.39;100.00
4586;BME280;2305;50.118;8.952;2023-03-29T13:31:32;100544.97;;;16.44;100.00
4586;BME280;2305;50.118;8.952;2023-03-29T13:34:08;100538.38;;;16.31;100.00
4586;BME280;2305;50.118;8.952;2023-03-29T13:36:48;100543.50;;;16.07;100.00
4586;BME280;2305;50.118;8.952;2023-03-29T13:39:22;100544.53;;;16.14;100.00
4586;BME280;2305;50.118;8.952;2023-03-29T13:41:52;100536.06;;;16.36;100.00
4586;BME280;2305;50.118;8.952;2023-03-29T13:44:26;100535.50;;;16.50;100.00
4586;BME280;2305;50.118;8.952;2023-03-29T13:47:14;100531.19;;;16.49;100.00
4586;BME280;2305;50.118;8.952;2023-03-29T13:49:56;100533.72;;;16.33;100.00
4586;BME280;2305;50.118;8.952;2023-03-29T13:52:29;100531.81;;;16.43;100.00
4586;BME280;2305;50.118;8.952;2023-03-29T13:55:03;100514.84;;;16.44;100.00
4586;BME280;2305;50.118;8.952;2023-03-29T13:57:36;100517.19;;;16.39;100.00